Time;durP1;ratioP1;P1;durP2;ratioP2;P2;SDS_P1;SDS_P2;PMS_P1;PMS_P2;Temp;Humidity;BMP_temperature;BMP_pressure;BME280_temperature;BME280_humidity;BME280_pressure;Samples;Min_cycle;Max_cycle;Signal;HPM_P1;HPM_P2
2023/03/08 00:01:00;;;;;;;;;;;4.06;118.36;;;;;;2672633;76;20785;-92
2023/03/08 00:04:28;;;;;;;;;;;4.06;118.70;;;;;;2673093;76;20479;-93
2023/03/08 00:07:56;;;;;;;;;;;4.10;-5.96;;;;;;2673347;76;20758;-93
2023/03/08 00:11:24;;;;;;;;;;;4.05;-5.84;;;;;;2672638;76;20353;-93
2023/03/08 00:14:52;;;;;;;;;;;4.02;-5.71;;;;;;2673267;76;20341;-92
2023/03/08 00:18:20;;;;;;;;;;;3.85;-5.50;;;;;;2673382;76;20322;-94
2023/03/08 00:21:48;;;;;;;;;;;3.90;-5.39;;;;;;2673175;76;20356;-93
2023/03/08 00:25:16;;;;;;;;;;;3.93;-5.24;;;;;;2672659;76;20368;-93
2023/03/08 00:28:45;;;;;;;;;;;3.88;-5.01;;;;;;2673595;76;20327;-93
2023/03/08 00:32:15;;;;;;;;;;;3.80;-5.02;;;;;;2673141;76;20357;-92
2023/03/08 00:35:42;;;;;;;;;;;3.84;-5.08;;;;;;2673060;76;20357;-92
2023/03/08 00:39:10;;;;;;;;;;;3.79;-5.11;;;;;;2672259;76;20663;-92
2023/03/08 00:42:39;;;;;;;;;;;3.83;-5.13;;;;;;2673829;76;20323;-93
2023/03/08 00:46:07;;;;;;;;;;;3.87;-4.86;;;;;;2672719;76;20360;-93
2023/03/08 00:49:35;;;;;;;;;;;3.83;-5.10;;;;;;2672844;76;20316;-92
2023/03/08 00:53:08;;;;;;;;;;;3.90;-5.34;;;;;;2673443;76;20340;-91
2023/03/08 00:56:33;;;;;;;;;;;3.93;-5.62;;;;;;2673459;76;20332;-92
2023/03/08 01:00:01;;;;;;;;;;;3.94;-5.87;;;;;;2673684;76;20327;-92
2023/03/08 01:03:29;;;;;;;;;;;3.90;-5.67;;;;;;2672718;76;20334;-92
2023/03/08 01:06:57;;;;;;;;;;;3.85;-5.22;;;;;;2673579;76;20331;-92
2023/03/08 01:10:25;;;;;;;;;;;3.80;-5.06;;;;;;2673284;76;20333;-91
2023/03/08 01:13:53;;;;;;;;;;;3.71;-4.98;;;;;;2672763;76;20350;-92
2023/03/08 01:17:21;;;;;;;;;;;3.67;-5.02;;;;;;2672974;76;20326;-91
2023/03/08 01:20:50;;;;;;;;;;;3.52;-5.16;;;;;;2673450;76;20376;-91
2023/03/08 01:24:18;;;;;;;;;;;3.49;-5.12;;;;;;2673766;76;20321;-91
2023/03/08 01:27:46;;;;;;;;;;;3.48;-5.27;;;;;;2672705;76;20299;-92
2023/03/08 01:31:14;;;;;;;;;;;3.35;-5.34;;;;;;2673736;76;20313;-92
2023/03/08 01:34:42;;;;;;;;;;;3.36;-5.42;;;;;;2673000;76;20361;-91
2023/03/08 01:38:10;;;;;;;;;;;3.28;-5.60;;;;;;2672784;76;20354;-91
2023/03/08 01:41:38;;;;;;;;;;;3.16;-5.65;;;;;;2673491;76;20318;-91
2023/03/08 01:45:06;;;;;;;;;;;3.05;-5.58;;;;;;2674011;76;20347;-92
2023/03/08 01:48:34;;;;;;;;;;;2.97;-5.51;;;;;;2672955;76;20338;-92
2023/03/08 01:52:02;;;;;;;;;;;2.85;-5.49;;;;;;2673460;76;20342;-93
2023/03/08 01:55:30;;;;;;;;;;;2.81;-5.08;;;;;;2673364;76;20329;-92
2023/03/08 01:58:59;;;;;;;;;;;2.69;-5.05;;;;;;2674251;76;20351;-91
2023/03/08 02:02:27;;;;;;;;;;;2.64;-5.17;;;;;;2672542;76;20374;-93
2023/03/08 02:05:55;;;;;;;;;;;2.58;-5.03;;;;;;2673619;76;20319;-93
2023/03/08 02:09:23;;;;;;;;;;;2.56;-4.69;;;;;;2673660;76;20327;-92
2023/03/08 02:12:51;;;;;;;;;;;2.47;-4.72;;;;;;2673060;76;20316;-92
2023/03/08 02:16:19;;;;;;;;;;;2.46;-4.46;;;;;;2672387;76;20486;-93
2023/03/08 02:19:47;;;;;;;;;;;2.43;-4.29;;;;;;2671753;76;20374;-92
2023/03/08 02:23:15;;;;;;;;;;;2.42;-3.86;;;;;;2672436;76;20672;-93
2023/03/08 02:26:43;;;;;;;;;;;2.46;-3.56;;;;;;2672709;76;20509;-92
2023/03/08 02:30:11;;;;;;;;;;;2.44;-3.28;;;;;;2672017;76;20350;-92
2023/03/08 02:33:39;;;;;;;;;;;2.40;-3.26;;;;;;2672764;76;20297;-93
2023/03/08 02:37:08;;;;;;;;;;;2.42;-3.12;;;;;;2672374;76;20386;-92
2023/03/08 02:40:36;;;;;;;;;;;2.37;-2.86;;;;;;2672753;76;20336;-92
2023/03/08 02:44:04;;;;;;;;;;;2.43;-2.73;;;;;;2672936;76;20324;-92
2023/03/08 02:47:32;;;;;;;;;;;2.40;-2.80;;;;;;2671527;76;20318;-93
2023/03/08 02:51:00;;;;;;;;;;;2.35;-2.74;;;;;;2672199;76;20361;-92
2023/03/08 02:54:28;;;;;;;;;;;2.34;-2.70;;;;;;2672741;76;20340;-92
2023/03/08 02:57:56;;;;;;;;;;;2.28;-2.80;;;;;;2671826;76;20320;-93
2023/03/08 03:01:24;;;;;;;;;;;2.24;-2.54;;;;;;2671791;76;20359;-93
2023/03/08 03:04:52;;;;;;;;;;;2.19;-2.58;;;;;;2670826;76;20334;-92
2023/03/08 03:08:20;;;;;;;;;;;2.13;-2.76;;;;;;2672060;76;20325;-92
2023/03/08 03:11:48;;;;;;;;;;;2.11;-2.48;;;;;;2672780;76;20315;-92
2023/03/08 03:15:16;;;;;;;;;;;2.11;-2.32;;;;;;2672348;76;20323;-93
2023/03/08 03:18:44;;;;;;;;;;;2.10;-2.03;;;;;;2672143;76;20396;-92
2023/03/08 03:22:13;;;;;;;;;;;2.11;-2.03;;;;;;2672799;76;20312;-93
2023/03/08 03:25:41;;;;;;;;;;;2.09;-1.87;;;;;;2673489;76;20334;-92
2023/03/08 03:29:09;;;;;;;;;;;2.05;-2.07;;;;;;2673376;76;20306;-93
2023/03/08 03:32:37;;;;;;;;;;;2.00;-2.16;;;;;;2673124;76;20356;-92
2023/03/08 03:36:05;;;;;;;;;;;1.97;-2.16;;;;;;2672757;76;20327;-92
2023/03/08 03:39:33;;;;;;;;;;;1.91;-2.10;;;;;;2673388;76;20320;-92
2023/03/08 03:43:01;;;;;;;;;;;1.93;-2.03;;;;;;2673165;76;20352;-92
2023/03/08 03:46:30;;;;;;;;;;;1.87;-2.05;;;;;;2672921;76;20368;-93
2023/03/08 03:49:58;;;;;;;;;;;1.85;-1.88;;;;;;2672626;76;20408;-92
2023/03/08 03:53:26;;;;;;;;;;;1.81;-2.07;;;;;;2672898;76;20328;-90
2023/03/08 03:56:57;;;;;;;;;;;1.84;-1.73;;;;;;2673059;76;20338;-92
2023/03/08 04:00:24;;;;;;;;;;;1.86;-1.81;;;;;;2672378;76;20413;-91
2023/03/08 04:03:52;;;;;;;;;;;1.82;-1.81;;;;;;2673209;76;20328;-91
2023/03/08 04:07:20;;;;;;;;;;;1.80;-1.74;;;;;;2672719;76;20348;-93
2023/03/08 04:10:48;;;;;;;;;;;1.72;-1.87;;;;;;2673199;76;20878;-92
2023/03/08 04:14:16;;;;;;;;;;;1.62;-2.12;;;;;;2673328;76;20398;-92
2023/03/08 04:17:44;;;;;;;;;;;1.55;-2.27;;;;;;2671335;76;20857;-92
2023/03/08 04:21:12;;;;;;;;;;;1.54;-2.22;;;;;;2673029;76;20333;-91
2023/03/08 04:24:43;;;;;;;;;;;1.53;-2.16;;;;;;2671841;76;20352;-91
2023/03/08 04:28:12;;;;;;;;;;;1.57;-1.95;;;;;;2671925;76;20870;-91
2023/03/08 04:31:40;;;;;;;;;;;1.64;-1.57;;;;;;2672366;76;20354;-91
2023/03/08 04:35:08;;;;;;;;;;;1.81;-1.24;;;;;;2672723;76;20325;-91
2023/03/08 04:38:36;;;;;;;;;;;2.00;-1.18;;;;;;2673301;76;20783;-91
2023/03/08 04:42:04;;;;;;;;;;;2.16;-1.25;;;;;;2674092;76;20369;-91
2023/03/08 04:45:32;;;;;;;;;;;2.31;-1.44;;;;;;2673608;76;20319;-91
2023/03/08 04:49:00;;;;;;;;;;;2.42;-1.56;;;;;;2673345;76;20360;-91
2023/03/08 04:52:28;;;;;;;;;;;2.52;-1.66;;;;;;2673763;76;20376;-91
2023/03/08 04:55:58;;;;;;;;;;;2.59;-1.61;;;;;;2673343;76;20393;-91
2023/03/08 04:59:27;;;;;;;;;;;2.65;-1.72;;;;;;2672795;76;20807;-91
2023/03/08 05:02:55;;;;;;;;;;;2.69;-1.85;;;;;;2671967;76;20391;-89
2023/03/08 05:06:23;;;;;;;;;;;2.67;-1.96;;;;;;2673423;76;20329;-90
2023/03/08 05:09:51;;;;;;;;;;;2.69;-2.06;;;;;;2673693;76;20336;-90
2023/03/08 05:13:19;;;;;;;;;;;2.71;-2.12;;;;;;2673579;76;20367;-90
2023/03/08 05:16:50;;;;;;;;;;;2.67;-2.24;;;;;;2671961;76;20311;-90
2023/03/08 05:20:24;;;;;;;;;;;2.58;-2.44;;;;;;2672324;76;20326;-90
2023/03/08 05:23:55;;;;;;;;;;;2.44;-2.64;;;;;;2673046;76;20781;-90
2023/03/08 05:27:23;;;;;;;;;;;2.35;-2.64;;;;;;2672838;76;20797;-90
2023/03/08 05:30:52;;;;;;;;;;;2.39;-2.48;;;;;;2672232;76;20387;-90
2023/03/08 05:34:20;;;;;;;;;;;2.49;-2.32;;;;;;2672153;76;21068;-92
2023/03/08 05:37:48;;;;;;;;;;;2.61;-2.28;;;;;;2672493;76;20369;-92
2023/03/08 05:41:16;;;;;;;;;;;2.74;-2.43;;;;;;2672490;76;20398;-92
2023/03/08 05:44:44;;;;;;;;;;;2.83;-2.51;;;;;;2673890;76;20769;-91
2023/03/08 05:48:12;;;;;;;;;;;2.87;-2.56;;;;;;2670566;76;20360;-92
2023/03/08 05:51:43;;;;;;;;;;;2.93;-2.56;;;;;;2673479;76;20353;-90
2023/03/08 05:55:12;;;;;;;;;;;3.00;-2.58;;;;;;2673553;76;20357;-90
2023/03/08 05:58:40;;;;;;;;;;;3.05;-2.56;;;;;;2671779;76;20360;-91
2023/03/08 06:02:08;;;;;;;;;;;3.20;-2.43;;;;;;2670252;76;20362;-91
2023/03/08 06:05:36;;;;;;;;;;;3.34;-2.44;;;;;;2670677;76;20369;-90
2023/03/08 06:09:04;;;;;;;;;;;3.47;-2.45;;;;;;2671015;76;20345;-91
2023/03/08 06:12:32;;;;;;;;;;;3.57;-2.50;;;;;;2671398;76;20340;-90
2023/03/08 06:16:00;;;;;;;;;;;3.67;-2.54;;;;;;2671401;76;20791;-90
2023/03/08 06:19:28;;;;;;;;;;;3.82;-2.56;;;;;;2670603;76;20912;-90
2023/03/08 06:22:56;;;;;;;;;;;3.91;-2.60;;;;;;2672346;76;20616;-90
2023/03/08 06:26:25;;;;;;;;;;;4.03;-2.65;;;;;;2669792;76;20365;-89
2023/03/08 06:29:54;;;;;;;;;;;4.23;-2.65;;;;;;2672004;76;20336;-90
2023/03/08 06:33:22;;;;;;;;;;;4.50;-2.62;;;;;;2671470;76;20337;-90
2023/03/08 06:36:50;;;;;;;;;;;4.82;-2.66;;;;;;2672523;76;20378;-91
2023/03/08 06:40:19;;;;;;;;;;;5.07;-2.77;;;;;;2673236;76;20320;-90
2023/03/08 06:43:47;;;;;;;;;;;5.20;-2.86;;;;;;2672871;76;20351;-90
2023/03/08 06:47:16;;;;;;;;;;;5.27;-2.87;;;;;;2671257;76;20342;-90
2023/03/08 06:50:44;;;;;;;;;;;5.34;-2.79;;;;;;2671934;76;20672;-90
2023/03/08 06:54:16;;;;;;;;;;;5.33;-2.80;;;;;;2670792;76;20338;-90
2023/03/08 06:57:42;;;;;;;;;;;5.39;-2.67;;;;;;2672412;76;20352;-90
2023/03/08 07:01:10;;;;;;;;;;;5.51;-2.61;;;;;;2672553;76;20353;-91
2023/03/08 07:04:38;;;;;;;;;;;5.59;-2.70;;;;;;2671572;76;20406;-89
2023/03/08 07:08:06;;;;;;;;;;;5.63;-2.76;;;;;;2671895;76;20371;-89
2023/03/08 07:11:34;;;;;;;;;;;5.71;-2.70;;;;;;2672850;76;20377;-89
2023/03/08 07:15:03;;;;;;;;;;;5.80;-2.84;;;;;;2672624;76;20376;-90
2023/03/08 07:18:31;;;;;;;;;;;5.87;-2.77;;;;;;2672391;76;20397;-89
2023/03/08 07:21:59;;;;;;;;;;;6.04;-2.76;;;;;;2672207;76;20368;-90
2023/03/08 07:25:27;;;;;;;;;;;6.19;-2.80;;;;;;2671574;76;20392;-89
2023/03/08 07:28:56;;;;;;;;;;;6.34;-2.80;;;;;;2672353;76;20800;-90
2023/03/08 07:32:27;;;;;;;;;;;6.44;-2.84;;;;;;2671523;76;20638;-90
2023/03/08 07:35:55;;;;;;;;;;;6.53;-2.99;;;;;;2671521;76;20342;-90
2023/03/08 07:39:24;;;;;;;;;;;6.71;-3.01;;;;;;2672775;76;20347;-90
2023/03/08 07:42:52;;;;;;;;;;;6.96;-3.05;;;;;;2672788;76;20339;-90
2023/03/08 07:46:20;;;;;;;;;;;7.19;-3.15;;;;;;2673189;76;20325;-90
2023/03/08 07:49:48;;;;;;;;;;;7.43;-3.31;;;;;;2671878;76;20327;-90
2023/03/08 07:53:19;;;;;;;;;;;7.62;-3.35;;;;;;2672597;76;20361;-91
2023/03/08 07:56:47;;;;;;;;;;;7.78;-3.48;;;;;;2671533;76;20451;-90
2023/03/08 08:00:15;;;;;;;;;;;7.88;-3.70;;;;;;2671632;76;20344;-89
2023/03/08 08:03:43;;;;;;;;;;;8.09;-3.63;;;;;;2672362;76;20400;-89
2023/03/08 08:07:12;;;;;;;;;;;8.29;-3.80;;;;;;2672722;76;20337;-90
2023/03/08 08:10:40;;;;;;;;;;;8.50;-3.91;;;;;;2672812;76;20356;-89
2023/03/08 08:14:13;;;;;;;;;;;8.73;-4.08;;;;;;2672039;76;20348;-90
2023/03/08 08:17:38;;;;;;;;;;;9.12;-4.54;;;;;;2671426;76;20352;-90
2023/03/08 08:21:06;;;;;;;;;;;9.35;118.76;;;;;;2672908;76;20801;-90
2023/03/08 08:24:34;;;;;;;;;;;9.49;118.14;;;;;;2672588;76;20357;-90
2023/03/08 08:28:02;;;;;;;;;;;9.44;117.99;;;;;;2672113;76;20399;-90
2023/03/08 08:31:31;;;;;;;;;;;9.23;117.65;;;;;;2669832;76;20338;-90
2023/03/08 08:34:59;;;;;;;;;;;9.14;117.97;;;;;;2672059;76;20347;-90
2023/03/08 08:38:27;;;;;;;;;;;9.14;117.92;;;;;;2672598;76;20420;-91
2023/03/08 08:41:55;;;;;;;;;;;9.16;118.00;;;;;;2672526;76;20326;-91
2023/03/08 08:45:23;;;;;;;;;;;9.00;116.87;;;;;;2671259;76;20330;-91
2023/03/08 08:48:51;;;;;;;;;;;9.00;117.05;;;;;;2671564;76;20833;-91
2023/03/08 08:52:19;;;;;;;;;;;9.18;117.03;;;;;;2671600;76;20463;-91
2023/03/08 08:55:47;;;;;;;;;;;9.20;116.32;;;;;;2672857;76;20382;-92
2023/03/08 08:59:16;;;;;;;;;;;9.11;115.60;;;;;;2672129;76;20320;-92
2023/03/08 09:02:44;;;;;;;;;;;9.20;115.16;;;;;;2671250;76;20365;-92
2023/03/08 09:06:12;;;;;;;;;;;9.27;115.39;;;;;;2671747;76;20331;-93
2023/03/08 09:09:40;;;;;;;;;;;9.38;115.47;;;;;;2672675;76;20374;-92
2023/03/08 09:13:11;;;;;;;;;;;9.46;115.33;;;;;;2672507;76;20423;-90
2023/03/08 09:16:39;;;;;;;;;;;9.54;115.25;;;;;;2670497;76;20329;-90
2023/03/08 09:20:10;;;;;;;;;;;9.49;114.86;;;;;;2670617;76;20896;-90
2023/03/08 09:23:38;;;;;;;;;;;9.42;114.22;;;;;;2670698;76;20348;-90
2023/03/08 09:27:06;;;;;;;;;;;9.40;113.65;;;;;;2671604;76;20678;-90
2023/03/08 09:30:34;;;;;;;;;;;9.53;114.18;;;;;;2671783;76;20366;-90
2023/03/08 09:34:08;;;;;;;;;;;9.49;114.00;;;;;;2670759;76;20679;-90
2023/03/08 09:37:33;;;;;;;;;;;9.54;114.09;;;;;;2671291;76;20333;-90
2023/03/08 09:41:01;;;;;;;;;;;9.23;113.06;;;;;;2671542;76;20343;-89
2023/03/08 09:44:29;;;;;;;;;;;9.17;113.45;;;;;;2672313;76;20352;-90
2023/03/08 09:47:58;;;;;;;;;;;9.29;113.98;;;;;;2672318;76;20436;-90
2023/03/08 09:51:27;;;;;;;;;;;9.51;114.16;;;;;;2671325;76;20382;-89
2023/03/08 09:54:55;;;;;;;;;;;9.74;114.25;;;;;;2671485;76;20308;-92
2023/03/08 09:58:23;;;;;;;;;;;9.98;114.32;;;;;;2671352;76;20313;-92
2023/03/08 10:01:51;;;;;;;;;;;10.23;114.32;;;;;;2671401;76;20355;-92
2023/03/08 10:05:19;;;;;;;;;;;10.01;114.08;;;;;;2672230;76;20327;-91
2023/03/08 10:08:48;;;;;;;;;;;10.05;114.23;;;;;;2670711;76;20393;-91
2023/03/08 10:12:16;;;;;;;;;;;9.90;114.59;;;;;;2672489;76;20330;-91
2023/03/08 10:15:44;;;;;;;;;;;9.91;115.00;;;;;;2671635;76;20361;-91
2023/03/08 10:19:13;;;;;;;;;;;9.91;115.07;;;;;;2671249;76;20372;-91
2023/03/08 10:22:41;;;;;;;;;;;9.71;115.09;;;;;;2672113;76;20749;-90
2023/03/08 10:26:09;;;;;;;;;;;9.72;115.35;;;;;;2672129;76;20348;-91
2023/03/08 10:29:37;;;;;;;;;;;9.95;115.35;;;;;;2671049;76;20337;-91
2023/03/08 10:33:05;;;;;;;;;;;9.86;115.28;;;;;;2671952;76;20763;-91
2023/03/08 10:36:34;;;;;;;;;;;9.69;115.52;;;;;;2672805;76;20348;-91
2023/03/08 10:40:04;;;;;;;;;;;9.52;115.79;;;;;;2672518;76;20376;-92
2023/03/08 10:43:31;;;;;;;;;;;9.55;116.18;;;;;;2672295;76;20372;-91
2023/03/08 10:46:59;;;;;;;;;;;9.50;116.38;;;;;;2671850;76;20327;-90
2023/03/08 10:50:28;;;;;;;;;;;9.05;117.44;;;;;;2673047;76;20349;-90
2023/03/08 10:53:56;;;;;;;;;;;8.71;118.80;;;;;;2672831;76;20380;-90
2023/03/08 10:57:24;;;;;;;;;;;8.49;-4.20;;;;;;2672948;76;20345;-89
2023/03/08 11:00:52;;;;;;;;;;;8.48;-3.29;;;;;;2672194;76;20317;-90
2023/03/08 11:04:21;;;;;;;;;;;8.56;-2.21;;;;;;2672454;76;20330;-91
2023/03/08 11:07:49;;;;;;;;;;;8.80;-2.06;;;;;;2672640;76;20343;-91
2023/03/08 11:11:20;;;;;;;;;;;8.92;-1.73;;;;;;2672567;76;20312;-90
2023/03/08 11:14:48;;;;;;;;;;;9.08;-1.70;;;;;;2671710;76;20374;-91
2023/03/08 11:18:16;;;;;;;;;;;9.25;-1.95;;;;;;2671771;76;20360;-91
2023/03/08 11:21:47;;;;;;;;;;;9.17;-1.48;;;;;;2672077;76;20828;-90
2023/03/08 11:25:14;;;;;;;;;;;9.24;-0.97;;;;;;2672343;76;20838;-91
2023/03/08 11:28:43;;;;;;;;;;;9.55;-0.88;;;;;;2672113;76;20866;-91
2023/03/08 11:32:11;;;;;;;;;;;9.69;-0.92;;;;;;2672575;76;20339;-91
2023/03/08 11:35:39;;;;;;;;;;;9.57;-0.57;;;;;;2672922;76;20324;-91
2023/03/08 11:39:07;;;;;;;;;;;9.52;-0.27;;;;;;2672602;76;20356;-92
2023/03/08 11:42:35;;;;;;;;;;;9.51;-0.16;;;;;;2671719;76;20359;-91
2023/03/08 11:46:03;;;;;;;;;;;9.62;-0.06;;;;;;2672791;76;20312;-92
2023/03/08 11:49:31;;;;;;;;;;;9.83;0.01;;;;;;2670989;76;20315;-91
2023/03/08 11:52:59;;;;;;;;;;;10.04;0.05;;;;;;2672740;76;20307;-91
2023/03/08 11:56:28;;;;;;;;;;;10.14;0.11;;;;;;2671976;76;20824;-91
2023/03/08 11:59:56;;;;;;;;;;;10.15;0.16;;;;;;2672332;76;20325;-91
2023/03/08 12:03:24;;;;;;;;;;;10.21;0.32;;;;;;2672653;76;20315;-91
2023/03/08 12:06:55;;;;;;;;;;;10.48;0.20;;;;;;2672154;76;20357;-91
2023/03/08 12:10:22;;;;;;;;;;;10.73;0.00;;;;;;2673339;76;20775;-91
2023/03/08 12:13:51;;;;;;;;;;;11.03;-0.29;;;;;;2673343;76;20673;-92
2023/03/08 12:17:19;;;;;;;;;;;11.37;-0.49;;;;;;2672726;76;20377;-91
2023/03/08 12:20:47;;;;;;;;;;;11.72;-0.79;;;;;;2672941;76;20329;-91
2023/03/08 12:24:16;;;;;;;;;;;12.01;-1.08;;;;;;2673447;76;21854;-91
2023/03/08 12:27:44;;;;;;;;;;;12.56;-1.14;;;;;;2673837;76;20364;-91
2023/03/08 12:31:12;;;;;;;;;;;13.24;-1.80;;;;;;2673513;76;20319;-91
2023/03/08 12:34:40;;;;;;;;;;;13.64;-2.19;;;;;;2672873;76;20334;-91
2023/03/08 12:38:08;;;;;;;;;;;13.89;-2.31;;;;;;2672810;76;20346;-91
2023/03/08 12:41:36;;;;;;;;;;;13.91;-2.41;;;;;;2672616;76;20310;-91
2023/03/08 12:45:05;;;;;;;;;;;13.83;-2.41;;;;;;2673105;76;20330;-91
2023/03/08 12:48:34;;;;;;;;;;;13.79;-2.12;;;;;;2671116;76;20866;-91
2023/03/08 12:52:02;;;;;;;;;;;13.75;-2.15;;;;;;2671428;76;20338;-92
2023/03/08 12:55:39;;;;;;;;;;;13.48;-2.71;;;;;;2670365;76;20401;-91
2023/03/08 12:59:12;;;;;;;;;;;13.08;-2.57;;;;;;2670829;76;20352;-91
2023/03/08 13:02:37;;;;;;;;;;;12.84;-2.92;;;;;;2672271;76;20378;-91
2023/03/08 13:06:05;;;;;;;;;;;12.70;-2.88;;;;;;2670375;76;20343;-92
2023/03/08 13:09:39;;;;;;;;;;;12.47;-3.40;;;;;;2670848;76;20796;-92
2023/03/08 13:13:04;;;;;;;;;;;12.46;-3.41;;;;;;2672469;76;20772;-91
2023/03/08 13:16:32;;;;;;;;;;;12.47;-3.11;;;;;;2672012;76;20359;-91
2023/03/08 13:20:00;;;;;;;;;;;12.61;-3.73;;;;;;2671668;76;20341;-91
2023/03/08 13:23:28;;;;;;;;;;;12.97;-3.80;;;;;;2671630;76;20330;-90
2023/03/08 13:26:56;;;;;;;;;;;13.51;-3.60;;;;;;2671232;76;20784;-91
2023/03/08 13:30:25;;;;;;;;;;;13.76;-4.76;;;;;;2671185;76;20787;-91
2023/03/08 13:33:53;;;;;;;;;;;13.49;-4.95;;;;;;2671835;76;20322;-90
2023/03/08 13:37:21;;;;;;;;;;;13.56;-4.37;;;;;;2674545;76;20400;-90
2023/03/08 13:40:49;;;;;;;;;;;14.14;-4.17;;;;;;2673061;76;20655;-91
2023/03/08 13:44:17;;;;;;;;;;;14.08;-5.81;;;;;;2671502;76;20383;-91
2023/03/08 13:47:46;;;;;;;;;;;13.68;-5.37;;;;;;2671215;76;20466;-91
2023/03/08 13:51:14;;;;;;;;;;;13.86;-4.81;;;;;;2672634;76;20333;-92
2023/03/08 13:54:42;;;;;;;;;;;14.07;-5.51;;;;;;2672689;76;20344;-91
2023/03/08 13:58:10;;;;;;;;;;;14.39;-5.71;;;;;;2671302;76;20340;-91
2023/03/08 14:01:38;;;;;;;;;;;14.56;-5.29;;;;;;2671655;76;20426;-90
2023/03/08 14:05:06;;;;;;;;;;;14.26;-5.40;;;;;;2673224;76;20762;-91
2023/03/08 14:08:34;;;;;;;;;;;14.26;-5.09;;;;;;2672237;76;20801;-90
2023/03/08 14:12:03;;;;;;;;;;;14.66;-5.42;;;;;;2672102;76;20452;-91
2023/03/08 14:15:31;;;;;;;;;;;15.13;117.83;;;;;;2671851;76;20429;-91
2023/03/08 14:19:04;;;;;;;;;;;15.25;117.26;;;;;;2672117;76;20816;-91
2023/03/08 14:22:29;;;;;;;;;;;15.55;117.19;;;;;;2671628;76;20791;-91
2023/03/08 14:25:57;;;;;;;;;;;15.38;117.43;;;;;;2671775;76;20774;-91
2023/03/08 14:29:25;;;;;;;;;;;15.11;117.23;;;;;;2669717;76;20340;-90
2023/03/08 14:32:54;;;;;;;;;;;15.09;118.08;;;;;;2672016;76;20787;-89
2023/03/08 14:36:22;;;;;;;;;;;14.64;118.37;;;;;;2672338;76;20327;-90
2023/03/08 14:39:51;;;;;;;;;;;14.81;118.98;;;;;;2671525;76;20735;-90
2023/03/08 14:43:19;;;;;;;;;;;14.81;118.55;;;;;;2671956;76;20354;-89
2023/03/08 14:46:47;;;;;;;;;;;14.97;118.60;;;;;;2668589;76;20369;-89
2023/03/08 14:50:15;;;;;;;;;;;14.66;118.57;;;;;;2670279;76;20796;-89
2023/03/08 14:53:43;;;;;;;;;;;14.64;118.90;;;;;;2670245;76;20347;-89
2023/03/08 14:57:12;;;;;;;;;;;14.51;-5.62;;;;;;2670421;76;20324;-90
2023/03/08 15:00:40;;;;;;;;;;;14.15;-4.95;;;;;;2670203;76;20375;-89
2023/03/08 15:04:08;;;;;;;;;;;13.64;-4.06;;;;;;2671547;76;20326;-90
2023/03/08 15:07:36;;;;;;;;;;;13.53;-3.18;;;;;;2670441;76;20383;-91
2023/03/08 15:11:04;;;;;;;;;;;13.54;-2.99;;;;;;2669923;76;20351;-90
2023/03/08 15:14:33;;;;;;;;;;;13.66;-2.97;;;;;;2670065;76;20321;-91
2023/03/08 15:18:01;;;;;;;;;;;13.83;-3.33;;;;;;2669176;76;20306;-90
2023/03/08 15:21:29;;;;;;;;;;;14.19;-3.51;;;;;;2669911;76;20694;-89
2023/03/08 15:24:57;;;;;;;;;;;14.20;-4.05;;;;;;2670992;76;20318;-92
2023/03/08 15:28:26;;;;;;;;;;;14.69;-4.41;;;;;;2671847;76;20811;-91
2023/03/08 15:31:54;;;;;;;;;;;14.73;-5.60;;;;;;2671291;76;20675;-90
2023/03/08 15:35:22;;;;;;;;;;;14.98;-5.90;;;;;;2671726;76;20399;-89
2023/03/08 15:38:50;;;;;;;;;;;15.02;118.36;;;;;;2669597;76;20328;-90
2023/03/08 15:42:18;;;;;;;;;;;15.16;118.76;;;;;;2671566;76;20356;-90
2023/03/08 15:45:46;;;;;;;;;;;16.71;113.93;;;;;;2670663;76;20371;-91
2023/03/08 15:49:14;;;;;;;;;;;15.81;115.37;;;;;;2669119;76;20361;-88
2023/03/08 15:52:43;;;;;;;;;;;19.22;112.75;;;;;;2670348;76;20320;-91
2023/03/08 15:56:11;;;;;;;;;;;20.87;104.36;;;;;;2670023;76;20349;-89
2023/03/08 15:59:39;;;;;;;;;;;23.13;100.76;;;;;;2670730;76;20370;-90
2023/03/08 16:03:07;;;;;;;;;;;19.29;101.29;;;;;;2672139;76;20359;-89
2023/03/08 16:06:35;;;;;;;;;;;16.35;109.56;;;;;;2672124;76;20334;-89
2023/03/08 16:10:03;;;;;;;;;;;14.91;114.58;;;;;;2670867;76;20317;-89
2023/03/08 16:13:31;;;;;;;;;;;13.98;117.13;;;;;;2670140;76;20306;-89
2023/03/08 16:16:59;;;;;;;;;;;13.48;118.79;;;;;;2666669;76;20340;-89
2023/03/08 16:20:27;;;;;;;;;;;13.19;-5.02;;;;;;2668863;76;20342;-89
2023/03/08 16:23:58;;;;;;;;;;;12.92;-4.52;;;;;;2671329;76;20324;-90
2023/03/08 16:27:26;;;;;;;;;;;12.60;-3.60;;;;;;2671460;76;20311;-90
2023/03/08 16:30:54;;;;;;;;;;;12.57;-2.56;;;;;;2670013;76;20329;-89
2023/03/08 16:34:22;;;;;;;;;;;12.44;-1.98;;;;;;2670729;76;20504;-89
2023/03/08 16:37:50;;;;;;;;;;;12.38;-1.86;;;;;;2671402;76;20314;-89
2023/03/08 16:41:18;;;;;;;;;;;12.18;-1.16;;;;;;2669383;76;20310;-90
2023/03/08 16:44:47;;;;;;;;;;;12.16;-0.70;;;;;;2669598;76;20420;-89
2023/03/08 16:48:15;;;;;;;;;;;12.19;-0.32;;;;;;2670866;76;20328;-90
2023/03/08 16:51:43;;;;;;;;;;;11.99;-0.23;;;;;;2671830;76;20341;-89
2023/03/08 16:55:11;;;;;;;;;;;11.98;0.48;;;;;;2671585;76;20814;-89
2023/03/08 16:58:39;;;;;;;;;;;11.87;0.94;;;;;;2671692;76;20798;-89
2023/03/08 17:02:07;;;;;;;;;;;11.72;0.94;;;;;;2671266;76;20411;-89
2023/03/08 17:05:35;;;;;;;;;;;11.66;1.50;;;;;;2670398;76;20357;-89
2023/03/08 17:09:03;;;;;;;;;;;11.67;1.76;;;;;;2669787;76;20329;-89
2023/03/08 17:12:31;;;;;;;;;;;11.56;1.71;;;;;;2669245;76;20314;-89
2023/03/08 17:15:59;;;;;;;;;;;11.56;1.86;;;;;;2670907;76;20371;-89
2023/03/08 17:19:28;;;;;;;;;;;11.56;1.97;;;;;;2670990;76;20341;-90
2023/03/08 17:23:01;;;;;;;;;;;11.58;2.32;;;;;;2668270;76;20380;-89
2023/03/08 17:26:26;;;;;;;;;;;11.62;2.24;;;;;;2670351;76;20758;-90
2023/03/08 17:29:54;;;;;;;;;;;11.57;2.04;;;;;;2670863;76;20810;-90
2023/03/08 17:33:24;;;;;;;;;;;11.64;2.48;;;;;;2671100;76;20813;-90
2023/03/08 17:36:52;;;;;;;;;;;11.56;2.32;;;;;;2670399;76;20822;-90
2023/03/08 17:40:20;;;;;;;;;;;11.52;2.29;;;;;;2669472;76;20340;-89
2023/03/08 17:43:48;;;;;;;;;;;11.55;2.37;;;;;;2669758;76;20331;-90
2023/03/08 17:47:16;;;;;;;;;;;11.56;2.27;;;;;;2669239;76;20336;-90
2023/03/08 17:50:45;;;;;;;;;;;11.64;2.31;;;;;;2671298;76;20319;-90
2023/03/08 17:54:14;;;;;;;;;;;11.77;1.84;;;;;;2669364;76;20763;-90
2023/03/08 17:57:42;;;;;;;;;;;11.83;1.55;;;;;;2670547;76;20888;-89
2023/03/08 18:01:10;;;;;;;;;;;11.94;1.35;;;;;;2671759;76;20661;-90
2023/03/08 18:04:38;;;;;;;;;;;11.73;2.32;;;;;;2671529;76;20370;-90
2023/03/08 18:08:06;;;;;;;;;;;11.70;3.46;;;;;;2671381;76;20371;-88
2023/03/08 18:11:36;;;;;;;;;;;11.82;3.32;;;;;;2671913;76;20325;-88
2023/03/08 18:15:04;;;;;;;;;;;11.88;3.06;;;;;;2671468;76;20409;-88
2023/03/08 18:18:32;;;;;;;;;;;11.77;2.83;;;;;;2670748;76;20364;-89
2023/03/08 18:22:03;;;;;;;;;;;11.81;3.34;;;;;;2672607;76;20339;-90
2023/03/08 18:25:30;;;;;;;;;;;11.79;3.33;;;;;;2672977;76;20333;-90
2023/03/08 18:28:58;;;;;;;;;;;11.75;3.41;;;;;;2672199;76;20363;-90
2023/03/08 18:32:27;;;;;;;;;;;11.70;3.74;;;;;;2671759;76;20378;-89
2023/03/08 18:35:56;;;;;;;;;;;11.62;4.06;;;;;;2672342;76;20324;-89
2023/03/08 18:39:26;;;;;;;;;;;11.61;4.18;;;;;;2670956;76;20345;-88
2023/03/08 18:42:54;;;;;;;;;;;11.61;4.42;;;;;;2671883;76;20434;-88
2023/03/08 18:46:27;;;;;;;;;;;11.64;4.59;;;;;;2670525;76;20355;-88
2023/03/08 18:49:54;;;;;;;;;;;11.54;4.67;;;;;;2671273;76;20336;-89
2023/03/08 18:53:22;;;;;;;;;;;11.54;5.15;;;;;;2671217;76;20314;-90
2023/03/08 18:56:53;;;;;;;;;;;11.44;5.03;;;;;;2672296;76;20345;-89
2023/03/08 19:00:22;;;;;;;;;;;11.49;5.09;;;;;;2669889;76;20334;-89
2023/03/08 19:03:50;;;;;;;;;;;11.49;4.48;;;;;;2671109;76;20315;-88
2023/03/08 19:07:18;;;;;;;;;;;11.60;3.93;;;;;;2671948;76;20385;-89
2023/03/08 19:10:46;;;;;;;;;;;11.68;3.91;;;;;;2672281;76;20349;-89
2023/03/08 19:14:14;;;;;;;;;;;11.74;3.82;;;;;;2672037;76;20351;-89
2023/03/08 19:17:42;;;;;;;;;;;11.76;3.07;;;;;;2671701;76;20364;-89
2023/03/08 19:21:10;;;;;;;;;;;11.78;2.92;;;;;;2672207;76;20350;-89
2023/03/08 19:24:38;;;;;;;;;;;11.70;3.78;;;;;;2672096;76;20356;-88
2023/03/08 19:28:06;;;;;;;;;;;11.53;4.39;;;;;;2671480;76;20341;-89
2023/03/08 19:31:34;;;;;;;;;;;11.47;5.28;;;;;;2671024;76;20373;-90
2023/03/08 19:35:03;;;;;;;;;;;11.30;6.34;;;;;;2671778;76;20371;-88
2023/03/08 19:38:31;;;;;;;;;;;11.22;7.14;;;;;;2670913;76;20341;-89
2023/03/08 19:41:59;;;;;;;;;;;11.14;7.88;;;;;;2672512;76;20347;-87
2023/03/08 19:45:27;;;;;;;;;;;10.95;7.97;;;;;;2671109;76;20773;-88
2023/03/08 19:48:55;;;;;;;;;;;10.93;8.53;;;;;;2670769;76;20753;-89
2023/03/08 19:52:23;;;;;;;;;;;10.95;8.51;;;;;;2671165;76;20859;-87
2023/03/08 19:55:51;;;;;;;;;;;10.96;8.90;;;;;;2669225;76;20315;-88
2023/03/08 19:59:19;;;;;;;;;;;10.97;8.82;;;;;;2668178;76;20343;-89
2023/03/08 20:02:48;;;;;;;;;;;10.96;9.15;;;;;;2670946;76;20354;-88
2023/03/08 20:06:16;;;;;;;;;;;10.35;13.76;;;;;;2671889;76;20307;-88
2023/03/08 20:09:46;;;;;;;;;;;10.09;15.81;;;;;;2672621;76;20996;-88
2023/03/08 20:13:14;;;;;;;;;;;9.99;16.81;;;;;;2670866;76;20761;-89
2023/03/08 20:16:42;;;;;;;;;;;9.98;17.23;;;;;;2671521;76;20359;-88
2023/03/08 20:20:11;;;;;;;;;;;10.00;17.51;;;;;;2672070;76;20475;-89